sensor_id;sensor_type;location;lat;lon;timestamp;P1;durP1;ratioP1;P2;durP2;ratioP2
75356;SDS011;63946;51.986;5.930;2022-12-10T07:02:07;144.63;;;28.08;;
75356;SDS011;63946;51.986;5.930;2022-12-10T07:04:37;63.78;;;21.50;;
75356;SDS011;63946;51.986;5.930;2022-12-10T07:07:10;53.50;;;19.02;;
75356;SDS011;63946;51.986;5.930;2022-12-10T07:09:43;78.00;;;21.30;;
75356;SDS011;63946;51.986;5.930;2022-12-10T07:12:13;79.70;;;24.88;;
75356;SDS011;63946;51.986;5.930;2022-12-10T07:14:42;71.28;;;23.92;;
75356;SDS011;63946;51.986;5.930;2022-12-10T07:17:11;99.38;;;25.95;;
75356;SDS011;63946;51.986;5.930;2022-12-10T07:19:40;72.75;;;23.70;;
75356;SDS011;63946;51.986;5.930;2022-12-10T07:22:11;78.72;;;23.77;;
75356;SDS011;63946;51.986;5.930;2022-12-10T07:24:43;73.15;;;19.88;;
75356;SDS011;63946;51.986;5.930;2022-12-10T07:27:12;65.63;;;19.25;;
75356;SDS011;63946;51.986;5.930;2022-12-10T07:29:41;60.65;;;18.38;;
75356;SDS011;63946;51.986;5.930;2022-12-10T07:32:11;53.90;;;19.75;;
75356;SDS011;63946;51.986;5.930;2022-12-10T07:34:40;67.45;;;21.42;;
75356;SDS011;63946;51.986;5.930;2022-12-10T07:37:09;68.20;;;21.70;;
75356;SDS011;63946;51.986;5.930;2022-12-10T07:39:38;63.95;;;20.35;;
75356;SDS011;63946;51.986;5.930;2022-12-10T07:42:11;75.38;;;24.52;;
75356;SDS011;63946;51.986;5.930;2022-12-10T07:44:40;63.60;;;23.08;;
75356;SDS011;63946;51.986;5.930;2022-12-10T07:47:09;61.28;;;21.48;;
75356;SDS011;63946;51.986;5.930;2022-12-10T07:49:38;49.85;;;18.85;;
75356;SDS011;63946;51.986;5.930;2022-12-10T07:52:09;57.97;;;21.40;;
75356;SDS011;63946;51.986;5.930;2022-12-10T07:54:38;57.58;;;21.58;;
75356;SDS011;63946;51.986;5.930;2022-12-10T07:57:10;41.85;;;18.08;;
75356;SDS011;63946;51.986;5.930;2022-12-10T07:59:39;54.17;;;19.08;;
75356;SDS011;63946;51.986;5.930;2022-12-10T08:02:08;61.42;;;21.42;;
75356;SDS011;63946;51.986;5.930;2022-12-10T08:04:39;48.33;;;17.25;;
75356;SDS011;63946;51.986;5.930;2022-12-10T08:07:10;55.47;;;19.67;;
75356;SDS011;63946;51.986;5.930;2022-12-10T08:09:39;53.30;;;18.98;;
75356;SDS011;63946;51.986;5.930;2022-12-10T08:12:08;76.30;;;20.95;;
75356;SDS011;63946;51.986;5.930;2022-12-10T08:14:37;71.30;;;20.45;;
75356;SDS011;63946;51.986;5.930;2022-12-10T08:17:06;78.60;;;21.67;;
75356;SDS011;63946;51.986;5.930;2022-12-10T08:19:35;51.20;;;18.50;;
75356;SDS011;63946;51.986;5.930;2022-12-10T08:22:04;60.10;;;19.00;;
75356;SDS011;63946;51.986;5.930;2022-12-10T08:24:34;56.30;;;17.30;;
75356;SDS011;63946;51.986;5.930;2022-12-10T08:27:03;81.32;;;21.33;;
75356;SDS011;63946;51.986;5.930;2022-12-10T08:29:32;80.05;;;22.38;;
75356;SDS011;63946;51.986;5.930;2022-12-10T08:32:03;69.97;;;21.73;;
75356;SDS011;63946;51.986;5.930;2022-12-10T08:34:32;54.72;;;20.13;;
75356;SDS011;63946;51.986;5.930;2022-12-10T08:37:00;52.17;;;18.55;;
75356;SDS011;63946;51.986;5.930;2022-12-10T08:39:30;63.75;;;18.92;;
75356;SDS011;63946;51.986;5.930;2022-12-10T08:41:59;58.65;;;21.52;;
75356;SDS011;63946;51.986;5.930;2022-12-10T08:44:28;56.92;;;19.90;;
75356;SDS011;63946;51.986;5.930;2022-12-10T08:46:57;69.03;;;18.17;;
75356;SDS011;63946;51.986;5.930;2022-12-10T08:49:26;50.80;;;17.10;;
75356;SDS011;63946;51.986;5.930;2022-12-10T08:51:55;61.63;;;19.35;;
75356;SDS011;63946;51.986;5.930;2022-12-10T08:54:23;63.90;;;19.55;;
75356;SDS011;63946;51.986;5.930;2022-12-10T08:56:52;51.15;;;18.10;;
75356;SDS011;63946;51.986;5.930;2022-12-10T08:59:21;65.20;;;18.63;;
75356;SDS011;63946;51.986;5.930;2022-12-10T09:01:51;61.33;;;18.45;;
75356;SDS011;63946;51.986;5.930;2022-12-10T09:04:20;63.33;;;19.45;;
75356;SDS011;63946;51.986;5.930;2022-12-10T09:06:49;51.72;;;19.48;;
75356;SDS011;63946;51.986;5.930;2022-12-10T09:09:18;48.38;;;17.75;;
75356;SDS011;63946;51.986;5.930;2022-12-10T09:11:47;82.95;;;21.17;;
75356;SDS011;63946;51.986;5.930;2022-12-10T09:14:16;57.15;;;19.52;;
75356;SDS011;63946;51.986;5.930;2022-12-10T09:16:44;48.90;;;17.85;;
75356;SDS011;63946;51.986;5.930;2022-12-10T09:19:13;55.30;;;17.90;;
75356;SDS011;63946;51.986;5.930;2022-12-10T09:21:42;65.53;;;20.48;;
75356;SDS011;63946;51.986;5.930;2022-12-10T09:24:12;49.53;;;17.63;;
75356;SDS011;63946;51.986;5.930;2022-12-10T09:26:43;56.83;;;19.30;;
75356;SDS011;63946;51.986;5.930;2022-12-10T09:29:12;50.92;;;18.80;;
75356;SDS011;63946;51.986;5.930;2022-12-10T09:31:41;75.82;;;20.05;;
75356;SDS011;63946;51.986;5.930;2022-12-10T09:34:11;52.78;;;16.92;;
75356;SDS011;63946;51.986;5.930;2022-12-10T09:36:39;70.32;;;21.25;;
75356;SDS011;63946;51.986;5.930;2022-12-10T09:39:08;49.88;;;17.20;;
75356;SDS011;63946;51.986;5.930;2022-12-10T09:42:01;55.20;;;19.73;;
75356;SDS011;63946;51.986;5.930;2022-12-10T09:44:56;41.95;;;15.02;;
75356;SDS011;63946;51.986;5.930;2022-12-10T09:48:21;60.33;;;18.95;;
75356;SDS011;63946;51.986;5.930;2022-12-10T09:53:19;55.33;;;17.67;;
75356;SDS011;63946;51.986;5.930;2022-12-10T09:55:50;63.78;;;19.77;;
75356;SDS011;63946;51.986;5.930;2022-12-10T09:58:20;53.58;;;17.60;;
75356;SDS011;63946;51.986;5.930;2022-12-10T10:00:57;54.47;;;19.60;;
75356;SDS011;63946;51.986;5.930;2022-12-10T10:03:37;44.55;;;17.23;;
75356;SDS011;63946;51.986;5.930;2022-12-10T10:06:13;51.63;;;18.00;;
75356;SDS011;63946;51.986;5.930;2022-12-10T10:08:44;49.17;;;17.00;;
75356;SDS011;63946;51.986;5.930;2022-12-10T10:11:18;60.90;;;20.42;;
75356;SDS011;63946;51.986;5.930;2022-12-10T10:13:51;50.35;;;17.35;;
75356;SDS011;63946;51.986;5.930;2022-12-10T10:16:25;46.08;;;17.33;;
75356;SDS011;63946;51.986;5.930;2022-12-10T10:19:00;46.30;;;17.55;;
75356;SDS011;63946;51.986;5.930;2022-12-10T10:21:41;53.63;;;17.98;;
75356;SDS011;63946;51.986;5.930;2022-12-10T10:24:13;47.85;;;17.30;;
75356;SDS011;63946;51.986;5.930;2022-12-10T10:26:45;50.97;;;18.95;;
75356;SDS011;63946;51.986;5.930;2022-12-10T10:29:16;48.22;;;16.77;;
75356;SDS011;63946;51.986;5.930;2022-12-10T10:31:47;55.40;;;19.73;;
75356;SDS011;63946;51.986;5.930;2022-12-10T10:34:20;61.83;;;21.48;;
75356;SDS011;63946;51.986;5.930;2022-12-10T10:36:55;52.85;;;18.48;;
75356;SDS011;63946;51.986;5.930;2022-12-10T10:39:29;51.35;;;17.27;;
75356;SDS011;63946;51.986;5.930;2022-12-10T10:42:06;79.38;;;22.67;;
75356;SDS011;63946;51.986;5.930;2022-12-10T10:44:40;62.35;;;20.67;;
75356;SDS011;63946;51.986;5.930;2022-12-10T10:47:30;56.92;;;19.58;;
75356;SDS011;63946;51.986;5.930;2022-12-10T10:50:03;50.25;;;17.27;;
75356;SDS011;63946;51.986;5.930;2022-12-10T10:52:37;56.05;;;19.02;;
75356;SDS011;63946;51.986;5.930;2022-12-10T10:55:30;65.80;;;19.88;;
75356;SDS011;63946;51.986;5.930;2022-12-10T10:58:02;47.03;;;17.42;;
75356;SDS011;63946;51.986;5.930;2022-12-10T11:00:31;44.45;;;17.10;;
75356;SDS011;63946;51.986;5.930;2022-12-10T11:03:00;68.15;;;19.63;;
75356;SDS011;63946;51.986;5.930;2022-12-10T11:05:30;47.50;;;18.08;;
75356;SDS011;63946;51.986;5.930;2022-12-10T11:08:00;61.63;;;17.45;;
75356;SDS011;63946;51.986;5.930;2022-12-10T11:10:31;39.78;;;13.82;;
75356;SDS011;63946;51.986;5.930;2022-12-10T11:13:07;46.97;;;16.65;;
75356;SDS011;63946;51.986;5.930;2022-12-10T11:15:54;45.90;;;16.77;;
75356;SDS011;63946;51.986;5.930;2022-12-10T11:18:36;48.33;;;17.85;;
75356;SDS011;63946;51.986;5.930;2022-12-10T11:21:16;59.53;;;19.50;;
75356;SDS011;63946;51.986;5.930;2022-12-10T11:23:54;48.65;;;19.73;;
75356;SDS011;63946;51.986;5.930;2022-12-10T11:34:51;61.08;;;17.67;;
75356;SDS011;63946;51.986;5.930;2022-12-10T11:37:25;51.50;;;18.30;;
75356;SDS011;63946;51.986;5.930;2022-12-10T11:42:54;47.40;;;18.05;;
75356;SDS011;63946;51.986;5.930;2022-12-10T11:54:05;51.42;;;17.90;;
75356;SDS011;63946;51.986;5.930;2022-12-10T11:56:50;40.75;;;16.20;;
75356;SDS011;63946;51.986;5.930;2022-12-10T11:59:41;48.40;;;17.77;;
75356;SDS011;63946;51.986;5.930;2022-12-10T12:02:35;38.53;;;14.80;;
75356;SDS011;63946;51.986;5.930;2022-12-10T12:08:10;53.88;;;16.75;;
75356;SDS011;63946;51.986;5.930;2022-12-10T12:10:55;35.63;;;13.95;;
75356;SDS011;63946;51.986;5.930;2022-12-10T12:13:58;42.13;;;15.35;;
75356;SDS011;63946;51.986;5.930;2022-12-10T12:19:09;39.38;;;14.40;;
75356;SDS011;63946;51.986;5.930;2022-12-10T12:21:43;53.45;;;16.65;;
75356;SDS011;63946;51.986;5.930;2022-12-10T12:24:20;50.20;;;17.17;;
75356;SDS011;63946;51.986;5.930;2022-12-10T12:26:55;46.60;;;16.20;;
75356;SDS011;63946;51.986;5.930;2022-12-10T12:32:09;35.45;;;14.60;;
75356;SDS011;63946;51.986;5.930;2022-12-10T12:37:35;44.45;;;15.80;;
75356;SDS011;63946;51.986;5.930;2022-12-10T12:40:15;44.22;;;15.98;;
75356;SDS011;63946;51.986;5.930;2022-12-10T12:42:46;34.15;;;13.68;;
75356;SDS011;63946;51.986;5.930;2022-12-10T12:45:31;43.70;;;16.40;;
75356;SDS011;63946;51.986;5.930;2022-12-10T12:51:29;53.25;;;17.58;;
75356;SDS011;63946;51.986;5.930;2022-12-10T12:56:52;40.25;;;15.20;;
75356;SDS011;63946;51.986;5.930;2022-12-10T12:59:45;45.35;;;16.08;;
75356;SDS011;63946;51.986;5.930;2022-12-10T13:02:38;55.92;;;16.95;;
75356;SDS011;63946;51.986;5.930;2022-12-10T13:05:25;53.45;;;17.13;;
75356;SDS011;63946;51.986;5.930;2022-12-10T13:10:52;43.90;;;13.20;;
75356;SDS011;63946;51.986;5.930;2022-12-10T13:13:32;39.17;;;13.80;;
75356;SDS011;63946;51.986;5.930;2022-12-10T13:43:23;51.10;;;15.98;;
75356;SDS011;63946;51.986;5.930;2022-12-10T13:46:32;50.88;;;15.82;;
75356;SDS011;63946;51.986;5.930;2022-12-10T13:51:52;74.13;;;17.20;;
75356;SDS011;63946;51.986;5.930;2022-12-10T13:54:28;90.45;;;15.93;;
75356;SDS011;63946;51.986;5.930;2022-12-10T14:00:15;49.45;;;14.73;;
75356;SDS011;63946;51.986;5.930;2022-12-10T14:02:52;49.95;;;14.73;;
75356;SDS011;63946;51.986;5.930;2022-12-10T14:08:55;41.35;;;14.48;;
75356;SDS011;63946;51.986;5.930;2022-12-10T14:11:31;48.50;;;15.93;;
75356;SDS011;63946;51.986;5.930;2022-12-10T14:14:05;45.05;;;15.35;;
75356;SDS011;63946;51.986;5.930;2022-12-10T14:16:42;69.35;;;17.30;;
75356;SDS011;63946;51.986;5.930;2022-12-10T14:19:13;48.70;;;15.48;;
75356;SDS011;63946;51.986;5.930;2022-12-10T14:21:46;95.20;;;18.88;;
75356;SDS011;63946;51.986;5.930;2022-12-10T14:24:35;50.50;;;14.70;;
75356;SDS011;63946;51.986;5.930;2022-12-10T14:27:16;45.25;;;15.68;;
75356;SDS011;63946;51.986;5.930;2022-12-10T14:29:51;50.70;;;17.48;;
75356;SDS011;63946;51.986;5.930;2022-12-10T14:32:32;40.45;;;13.85;;
75356;SDS011;63946;51.986;5.930;2022-12-10T14:35:05;34.72;;;13.07;;
75356;SDS011;63946;51.986;5.930;2022-12-10T14:37:42;41.80;;;13.50;;
75356;SDS011;63946;51.986;5.930;2022-12-10T14:40:22;41.10;;;12.13;;
75356;SDS011;63946;51.986;5.930;2022-12-10T14:42:55;53.95;;;14.50;;
75356;SDS011;63946;51.986;5.930;2022-12-10T14:45:41;29.95;;;11.48;;
75356;SDS011;63946;51.986;5.930;2022-12-10T14:48:18;61.60;;;16.17;;
75356;SDS011;63946;51.986;5.930;2022-12-10T14:50:47;69.30;;;14.63;;
75356;SDS011;63946;51.986;5.930;2022-12-10T14:53:19;45.78;;;13.48;;
75356;SDS011;63946;51.986;5.930;2022-12-10T14:55:53;55.58;;;12.60;;
75356;SDS011;63946;51.986;5.930;2022-12-10T14:58:30;43.83;;;13.45;;
75356;SDS011;63946;51.986;5.930;2022-12-10T15:01:29;39.47;;;13.48;;
75356;SDS011;63946;51.986;5.930;2022-12-10T15:04:03;45.38;;;13.30;;
75356;SDS011;63946;51.986;5.930;2022-12-10T15:06:34;95.68;;;16.58;;
75356;SDS011;63946;51.986;5.930;2022-12-10T15:09:15;55.10;;;14.77;;
75356;SDS011;63946;51.986;5.930;2022-12-10T15:11:55;44.30;;;11.85;;
75356;SDS011;63946;51.986;5.930;2022-12-10T15:14:26;65.38;;;12.80;;
75356;SDS011;63946;51.986;5.930;2022-12-10T15:17:01;38.80;;;12.82;;
75356;SDS011;63946;51.986;5.930;2022-12-10T15:19:32;42.05;;;13.15;;
75356;SDS011;63946;51.986;5.930;2022-12-10T15:24:43;53.47;;;13.23;;
75356;SDS011;63946;51.986;5.930;2022-12-10T15:27:17;40.10;;;12.38;;
75356;SDS011;63946;51.986;5.930;2022-12-10T15:29:48;47.75;;;12.57;;
75356;SDS011;63946;51.986;5.930;2022-12-10T15:32:22;90.57;;;14.52;;
75356;SDS011;63946;51.986;5.930;2022-12-10T15:35:01;60.58;;;13.70;;
75356;SDS011;63946;51.986;5.930;2022-12-10T15:37:38;50.78;;;12.85;;
75356;SDS011;63946;51.986;5.930;2022-12-10T15:40:21;62.13;;;13.63;;
75356;SDS011;63946;51.986;5.930;2022-12-10T15:42:56;77.07;;;15.80;;
75356;SDS011;63946;51.986;5.930;2022-12-10T15:45:41;38.22;;;13.20;;
75356;SDS011;63946;51.986;5.930;2022-12-10T15:48:11;33.33;;;12.43;;
75356;SDS011;63946;51.986;5.930;2022-12-10T15:50:41;44.05;;;14.07;;
75356;SDS011;63946;51.986;5.930;2022-12-10T15:53:12;34.72;;;11.15;;
75356;SDS011;63946;51.986;5.930;2022-12-10T15:55:45;43.35;;;13.45;;
75356;SDS011;63946;51.986;5.930;2022-12-10T15:58:14;32.80;;;11.05;;
75356;SDS011;63946;51.986;5.930;2022-12-10T16:00:43;30.90;;;11.63;;
75356;SDS011;63946;51.986;5.930;2022-12-10T16:03:16;29.50;;;11.68;;
75356;SDS011;63946;51.986;5.930;2022-12-10T16:05:46;45.90;;;15.30;;
75356;SDS011;63946;51.986;5.930;2022-12-10T16:08:17;44.85;;;13.38;;
75356;SDS011;63946;51.986;5.930;2022-12-10T16:10:51;31.15;;;9.95;;
75356;SDS011;63946;51.986;5.930;2022-12-10T16:13:22;26.35;;;9.48;;
75356;SDS011;63946;51.986;5.930;2022-12-10T16:15:55;40.67;;;12.88;;
75356;SDS011;63946;51.986;5.930;2022-12-10T16:18:28;38.20;;;11.45;;
75356;SDS011;63946;51.986;5.930;2022-12-10T16:20:57;33.75;;;12.05;;
75356;SDS011;63946;51.986;5.930;2022-12-10T16:23:26;32.45;;;10.88;;
75356;SDS011;63946;51.986;5.930;2022-12-10T16:25:55;38.15;;;12.05;;
75356;SDS011;63946;51.986;5.930;2022-12-10T16:28:26;29.52;;;11.55;;
75356;SDS011;63946;51.986;5.930;2022-12-10T16:30:56;26.98;;;11.20;;
75356;SDS011;63946;51.986;5.930;2022-12-10T16:33:29;31.02;;;10.75;;
75356;SDS011;63946;51.986;5.930;2022-12-10T16:35:58;39.92;;;11.43;;
75356;SDS011;63946;51.986;5.930;2022-12-10T16:38:27;22.45;;;8.90;;
75356;SDS011;63946;51.986;5.930;2022-12-10T16:40:56;26.52;;;10.05;;
75356;SDS011;63946;51.986;5.930;2022-12-10T16:43:27;31.52;;;12.50;;
75356;SDS011;63946;51.986;5.930;2022-12-10T16:45:58;27.05;;;10.95;;
75356;SDS011;63946;51.986;5.930;2022-12-10T16:48:29;30.60;;;10.90;;
75356;SDS011;63946;51.986;5.930;2022-12-10T16:50:58;33.92;;;12.57;;
75356;SDS011;63946;51.986;5.930;2022-12-10T16:53:30;31.55;;;12.48;;
75356;SDS011;63946;51.986;5.930;2022-12-10T16:56:01;28.77;;;11.13;;
75356;SDS011;63946;51.986;5.930;2022-12-10T16:58:30;40.05;;;12.50;;
75356;SDS011;63946;51.986;5.930;2022-12-10T17:00:59;34.13;;;11.48;;
75356;SDS011;63946;51.986;5.930;2022-12-10T17:03:30;29.55;;;11.35;;
75356;SDS011;63946;51.986;5.930;2022-12-10T17:06:01;31.60;;;11.43;;
75356;SDS011;63946;51.986;5.930;2022-12-10T17:08:31;32.58;;;12.00;;
75356;SDS011;63946;51.986;5.930;2022-12-10T17:11:00;23.00;;;9.60;;
75356;SDS011;63946;51.986;5.930;2022-12-10T17:13:42;30.08;;;11.80;;
75356;SDS011;63946;51.986;5.930;2022-12-10T17:16:12;51.08;;;13.55;;
75356;SDS011;63946;51.986;5.930;2022-12-10T17:18:45;41.90;;;13.25;;
75356;SDS011;63946;51.986;5.930;2022-12-10T17:21:14;25.73;;;10.85;;
75356;SDS011;63946;51.986;5.930;2022-12-10T17:23:43;52.10;;;14.27;;
75356;SDS011;63946;51.986;5.930;2022-12-10T17:26:20;40.05;;;12.60;;
75356;SDS011;63946;51.986;5.930;2022-12-10T17:28:54;52.95;;;12.73;;
75356;SDS011;63946;51.986;5.930;2022-12-10T17:31:28;38.53;;;12.35;;
75356;SDS011;63946;51.986;5.930;2022-12-10T17:33:57;54.03;;;14.15;;
75356;SDS011;63946;51.986;5.930;2022-12-10T17:36:28;40.08;;;12.95;;
75356;SDS011;63946;51.986;5.930;2022-12-10T17:38:59;34.13;;;11.68;;
75356;SDS011;63946;51.986;5.930;2022-12-10T17:41:28;33.78;;;14.05;;
75356;SDS011;63946;51.986;5.930;2022-12-10T17:43:57;37.15;;;12.23;;
75356;SDS011;63946;51.986;5.930;2022-12-10T17:46:26;32.35;;;11.80;;
75356;SDS011;63946;51.986;5.930;2022-12-10T17:48:56;44.83;;;13.80;;
75356;SDS011;63946;51.986;5.930;2022-12-10T17:51:26;35.17;;;12.52;;
75356;SDS011;63946;51.986;5.930;2022-12-10T17:53:55;38.15;;;11.20;;
75356;SDS011;63946;51.986;5.930;2022-12-10T17:56:26;27.85;;;11.15;;
75356;SDS011;63946;51.986;5.930;2022-12-10T17:58:56;53.88;;;14.57;;
75356;SDS011;63946;51.986;5.930;2022-12-10T18:01:25;34.65;;;13.38;;
75356;SDS011;63946;51.986;5.930;2022-12-10T18:03:56;28.92;;;12.27;;
75356;SDS011;63946;51.986;5.930;2022-12-10T18:06:26;26.45;;;10.93;;
75356;SDS011;63946;51.986;5.930;2022-12-10T18:09:00;42.15;;;13.13;;
75356;SDS011;63946;51.986;5.930;2022-12-10T18:11:31;53.30;;;12.00;;
75356;SDS011;63946;51.986;5.930;2022-12-10T18:14:02;40.13;;;11.30;;
75356;SDS011;63946;51.986;5.930;2022-12-10T18:16:32;33.15;;;11.57;;
75356;SDS011;63946;51.986;5.930;2022-12-10T18:19:10;34.55;;;11.07;;
75356;SDS011;63946;51.986;5.930;2022-12-10T18:21:46;44.72;;;14.40;;
75356;SDS011;63946;51.986;5.930;2022-12-10T18:24:15;49.70;;;12.07;;
75356;SDS011;63946;51.986;5.930;2022-12-10T18:26:45;49.90;;;13.20;;
75356;SDS011;63946;51.986;5.930;2022-12-10T18:29:14;25.67;;;10.48;;
75356;SDS011;63946;51.986;5.930;2022-12-10T18:31:43;32.15;;;11.10;;
75356;SDS011;63946;51.986;5.930;2022-12-10T18:34:14;42.72;;;11.88;;
75356;SDS011;63946;51.986;5.930;2022-12-10T18:36:45;46.22;;;12.30;;
75356;SDS011;63946;51.986;5.930;2022-12-10T18:39:18;37.75;;;12.35;;
75356;SDS011;63946;51.986;5.930;2022-12-10T18:41:50;34.35;;;12.65;;
75356;SDS011;63946;51.986;5.930;2022-12-10T18:44:21;25.45;;;9.75;;
75356;SDS011;63946;51.986;5.930;2022-12-10T18:46:52;35.33;;;13.38;;
75356;SDS011;63946;51.986;5.930;2022-12-10T18:51:52;34.75;;;11.43;;
75356;SDS011;63946;51.986;5.930;2022-12-10T18:54:21;31.95;;;12.07;;
75356;SDS011;63946;51.986;5.930;2022-12-10T18:56:50;30.20;;;12.43;;
75356;SDS011;63946;51.986;5.930;2022-12-10T18:59:19;29.58;;;10.55;;
75356;SDS011;63946;51.986;5.930;2022-12-10T19:01:48;28.10;;;11.02;;
75356;SDS011;63946;51.986;5.930;2022-12-10T19:04:17;27.58;;;12.18;;
75356;SDS011;63946;51.986;5.930;2022-12-10T19:06:46;34.03;;;12.48;;
75356;SDS011;63946;51.986;5.930;2022-12-10T19:09:16;36.65;;;15.70;;
75356;SDS011;63946;51.986;5.930;2022-12-10T19:11:47;30.95;;;12.05;;
75356;SDS011;63946;51.986;5.930;2022-12-10T19:14:17;28.65;;;11.48;;
75356;SDS011;63946;51.986;5.930;2022-12-10T19:16:48;32.03;;;11.50;;
75356;SDS011;63946;51.986;5.930;2022-12-10T19:19:17;25.38;;;10.70;;
75356;SDS011;63946;51.986;5.930;2022-12-10T19:21:46;38.15;;;13.88;;
75356;SDS011;63946;51.986;5.930;2022-12-10T19:24:25;38.38;;;13.82;;
75356;SDS011;63946;51.986;5.930;2022-12-10T19:26:57;31.98;;;11.93;;
75356;SDS011;63946;51.986;5.930;2022-12-10T19:29:26;27.77;;;10.00;;
75356;SDS011;63946;51.986;5.930;2022-12-10T19:31:57;25.58;;;11.18;;
75356;SDS011;63946;51.986;5.930;2022-12-10T19:34:29;31.65;;;12.05;;
75356;SDS011;63946;51.986;5.930;2022-12-10T19:36:59;28.42;;;11.23;;
75356;SDS011;63946;51.986;5.930;2022-12-10T19:39:31;35.03;;;13.25;;
75356;SDS011;63946;51.986;5.930;2022-12-10T19:42:00;33.65;;;12.38;;
75356;SDS011;63946;51.986;5.930;2022-12-10T19:44:32;35.60;;;13.60;;
75356;SDS011;63946;51.986;5.930;2022-12-10T19:47:00;36.83;;;13.18;;
75356;SDS011;63946;51.986;5.930;2022-12-10T19:49:30;43.53;;;15.90;;
75356;SDS011;63946;51.986;5.930;2022-12-10T19:51:58;30.13;;;11.80;;
75356;SDS011;63946;51.986;5.930;2022-12-10T19:54:31;36.63;;;13.50;;
75356;SDS011;63946;51.986;5.930;2022-12-10T19:57:03;36.08;;;12.10;;
75356;SDS011;63946;51.986;5.930;2022-12-10T19:59:32;34.22;;;12.90;;
75356;SDS011;63946;51.986;5.930;2022-12-10T20:02:05;33.47;;;13.30;;
75356;SDS011;63946;51.986;5.930;2022-12-10T20:04:38;31.40;;;11.77;;
75356;SDS011;63946;51.986;5.930;2022-12-10T20:07:08;33.40;;;12.30;;
75356;SDS011;63946;51.986;5.930;2022-12-10T20:09:37;28.52;;;11.30;;
75356;SDS011;63946;51.986;5.930;2022-12-10T20:12:07;34.90;;;13.15;;
75356;SDS011;63946;51.986;5.930;2022-12-10T20:14:36;40.33;;;12.70;;
75356;SDS011;63946;51.986;5.930;2022-12-10T20:17:05;37.15;;;12.98;;
75356;SDS011;63946;51.986;5.930;2022-12-10T20:19:34;36.53;;;13.13;;
75356;SDS011;63946;51.986;5.930;2022-12-10T20:22:03;33.30;;;10.95;;
75356;SDS011;63946;51.986;5.930;2022-12-10T20:24:32;37.08;;;12.73;;
75356;SDS011;63946;51.986;5.930;2022-12-10T20:27:01;36.53;;;12.63;;
75356;SDS011;63946;51.986;5.930;2022-12-10T20:29:30;37.58;;;11.98;;
75356;SDS011;63946;51.986;5.930;2022-12-10T20:32:02;32.75;;;11.15;;
75356;SDS011;63946;51.986;5.930;2022-12-10T20:34:31;34.00;;;11.95;;
75356;SDS011;63946;51.986;5.930;2022-12-10T20:37:01;28.35;;;11.20;;
75356;SDS011;63946;51.986;5.930;2022-12-10T20:39:31;36.72;;;12.35;;
75356;SDS011;63946;51.986;5.930;2022-12-10T20:44:31;37.95;;;13.27;;
75356;SDS011;63946;51.986;5.930;2022-12-10T20:47:00;31.05;;;12.00;;
75356;SDS011;63946;51.986;5.930;2022-12-10T20:49:32;33.00;;;11.75;;
75356;SDS011;63946;51.986;5.930;2022-12-10T20:52:01;37.60;;;11.75;;
75356;SDS011;63946;51.986;5.930;2022-12-10T20:54:30;41.03;;;12.32;;
75356;SDS011;63946;51.986;5.930;2022-12-10T20:56:59;33.83;;;12.15;;
75356;SDS011;63946;51.986;5.930;2022-12-10T20:59:28;28.23;;;10.63;;
75356;SDS011;63946;51.986;5.930;2022-12-10T21:02:02;42.20;;;15.60;;
75356;SDS011;63946;51.986;5.930;2022-12-10T21:04:31;42.85;;;13.75;;
75356;SDS011;63946;51.986;5.930;2022-12-10T21:07:00;34.72;;;12.15;;
75356;SDS011;63946;51.986;5.930;2022-12-10T21:09:29;29.52;;;11.23;;
75356;SDS011;63946;51.986;5.930;2022-12-10T21:11:58;27.65;;;10.55;;
75356;SDS011;63946;51.986;5.930;2022-12-10T21:14:29;34.28;;;11.93;;
75356;SDS011;63946;51.986;5.930;2022-12-10T21:16:58;32.45;;;11.68;;
75356;SDS011;63946;51.986;5.930;2022-12-10T21:19:28;29.38;;;12.43;;
75356;SDS011;63946;51.986;5.930;2022-12-10T21:21:57;30.08;;;12.30;;
75356;SDS011;63946;51.986;5.930;2022-12-10T21:24:27;31.67;;;11.80;;
75356;SDS011;63946;51.986;5.930;2022-12-10T21:26:56;27.80;;;12.15;;
75356;SDS011;63946;51.986;5.930;2022-12-10T21:29:25;30.90;;;12.02;;
75356;SDS011;63946;51.986;5.930;2022-12-10T21:31:54;25.83;;;11.43;;
75356;SDS011;63946;51.986;5.930;2022-12-10T21:34:23;21.25;;;9.48;;
75356;SDS011;63946;51.986;5.930;2022-12-10T21:36:52;30.40;;;11.10;;
75356;SDS011;63946;51.986;5.930;2022-12-10T21:39:21;24.40;;;10.48;;
75356;SDS011;63946;51.986;5.930;2022-12-10T21:41:52;32.65;;;13.13;;
75356;SDS011;63946;51.986;5.930;2022-12-10T21:44:34;30.65;;;11.07;;
75356;SDS011;63946;51.986;5.930;2022-12-10T21:47:02;30.27;;;11.90;;
75356;SDS011;63946;51.986;5.930;2022-12-10T21:49:32;29.83;;;11.45;;
75356;SDS011;63946;51.986;5.930;2022-12-10T21:52:01;25.80;;;9.52;;
75356;SDS011;63946;51.986;5.930;2022-12-10T21:54:33;29.20;;;11.38;;
75356;SDS011;63946;51.986;5.930;2022-12-10T21:57:06;28.05;;;10.73;;
75356;SDS011;63946;51.986;5.930;2022-12-10T21:59:36;20.08;;;8.80;;
75356;SDS011;63946;51.986;5.930;2022-12-10T22:02:05;22.52;;;8.93;;
75356;SDS011;63946;51.986;5.930;2022-12-10T22:04:34;31.88;;;10.63;;
75356;SDS011;63946;51.986;5.930;2022-12-10T22:07:05;16.63;;;7.50;;
75356;SDS011;63946;51.986;5.930;2022-12-10T22:09:34;19.77;;;8.35;;
75356;SDS011;63946;51.986;5.930;2022-12-10T22:12:03;28.30;;;9.35;;
75356;SDS011;63946;51.986;5.930;2022-12-10T22:14:32;23.88;;;9.00;;
75356;SDS011;63946;51.986;5.930;2022-12-10T22:17:01;20.00;;;9.00;;
75356;SDS011;63946;51.986;5.930;2022-12-10T22:19:32;24.42;;;10.05;;
75356;SDS011;63946;51.986;5.930;2022-12-10T22:22:01;26.17;;;10.25;;
75356;SDS011;63946;51.986;5.930;2022-12-10T22:24:33;25.00;;;10.05;;
75356;SDS011;63946;51.986;5.930;2022-12-10T22:27:02;27.10;;;11.18;;
75356;SDS011;63946;51.986;5.930;2022-12-10T22:29:31;23.65;;;9.48;;
75356;SDS011;63946;51.986;5.930;2022-12-10T22:32:00;28.70;;;11.02;;
75356;SDS011;63946;51.986;5.930;2022-12-10T22:34:29;24.23;;;9.48;;
75356;SDS011;63946;51.986;5.930;2022-12-10T22:37:02;26.42;;;10.35;;
75356;SDS011;63946;51.986;5.930;2022-12-10T22:39:31;29.30;;;10.98;;
75356;SDS011;63946;51.986;5.930;2022-12-10T22:42:00;26.48;;;10.10;;
75356;SDS011;63946;51.986;5.930;2022-12-10T22:44:30;22.70;;;10.75;;
75356;SDS011;63946;51.986;5.930;2022-12-10T22:46:59;29.17;;;11.68;;
75356;SDS011;63946;51.986;5.930;2022-12-10T22:49:28;29.48;;;11.30;;
75356;SDS011;63946;51.986;5.930;2022-12-10T22:51:57;31.33;;;12.27;;
75356;SDS011;63946;51.986;5.930;2022-12-10T22:54:26;36.47;;;12.63;;
75356;SDS011;63946;51.986;5.930;2022-12-10T22:56:56;26.95;;;11.38;;
75356;SDS011;63946;51.986;5.930;2022-12-10T22:59:25;37.42;;;12.60;;
75356;SDS011;63946;51.986;5.930;2022-12-10T23:01:55;25.48;;;10.38;;
75356;SDS011;63946;51.986;5.930;2022-12-10T23:04:26;25.98;;;10.60;;
75356;SDS011;63946;51.986;5.930;2022-12-10T23:06:55;31.27;;;12.85;;
75356;SDS011;63946;51.986;5.930;2022-12-10T23:09:24;34.33;;;13.27;;
75356;SDS011;63946;51.986;5.930;2022-12-10T23:11:56;26.80;;;11.05;;
75356;SDS011;63946;51.986;5.930;2022-12-10T23:14:38;25.85;;;9.95;;
75356;SDS011;63946;51.986;5.930;2022-12-10T23:17:07;32.78;;;11.35;;
75356;SDS011;63946;51.986;5.930;2022-12-10T23:19:36;29.17;;;11.57;;